Time;durP1;ratioP1;P1;durP2;ratioP2;P2;SDS_P1;SDS_P2;PMS_P1;PMS_P2;Temp;Humidity;BMP_temperature;BMP_pressure;BME280_temperature;BME280_humidity;BME280_pressure;Samples;Min_cycle;Max_cycle;Signal;HPM_P1;HPM_P2
2023/12/16 00:00:07;;;;;;;3.67;1.85;;;;;;;20.85;31.26;102753.06;4471939;28;20043;-54
2023/12/16 00:02:21;;;;;;;3.15;2.00;;;;;;;20.84;31.55;102752.22;4470402;28;20705;-53
2023/12/16 00:04:32;;;;;;;2.95;1.80;;;;;;;20.84;31.81;102752.22;4471935;28;20057;-54
2023/12/16 00:06:42;;;;;;;3.75;1.83;;;;;;;20.83;31.55;102754.22;4471961;28;20038;-54
2023/12/16 00:08:53;;;;;;;3.00;1.70;;;;;;;20.84;31.64;102757.94;4471466;28;20070;-54
2023/12/16 00:11:03;;;;;;;2.38;1.63;;;;;;;20.83;31.70;102753.38;4471632;28;20043;-51
2023/12/16 00:13:13;;;;;;;3.13;2.10;;;;;;;20.85;31.03;102750.19;4471487;28;20047;-55
2023/12/16 00:15:24;;;;;;;2.50;1.50;;;;;;;20.83;31.54;102751.34;4471670;28;20043;-54
2023/12/16 00:17:35;;;;;;;2.08;1.60;;;;;;;20.83;31.37;102746.78;4471948;28;20863;-51
2023/12/16 00:19:45;;;;;;;2.67;1.75;;;;;;;20.83;31.20;102753.38;4471745;28;20035;-56
2023/12/16 00:21:55;;;;;;;3.22;1.77;;;;;;;20.83;31.37;102753.38;4471711;28;20053;-54
2023/12/16 00:24:09;;;;;;;2.65;1.50;;;;;;;20.82;31.27;102760.28;4471876;28;20484;-56
2023/12/16 00:26:19;;;;;;;3.35;1.90;;;;;;;20.83;31.20;102759.13;4471501;28;20046;-56
2023/12/16 00:28:30;;;;;;;3.22;1.90;;;;;;;20.83;31.10;102758.25;4470963;28;20054;-51
2023/12/16 00:30:40;;;;;;;3.15;1.80;;;;;;;20.83;31.21;102766.88;4471353;28;20074;-51
2023/12/16 00:32:51;;;;;;;2.65;1.80;;;;;;;20.81;31.03;102764.31;4471790;28;20125;-53
2023/12/16 00:35:02;;;;;;;2.47;1.60;;;;;;;20.81;31.45;102761.44;4471595;28;20397;-54
2023/12/16 00:37:12;;;;;;;3.10;1.50;;;;;;;20.82;31.50;102757.41;4471299;28;20039;-51
2023/12/16 00:39:23;;;;;;;4.32;1.80;;;;;;;20.80;30.89;102768.38;4471176;28;20051;-52
2023/12/16 00:41:33;;;;;;;2.92;1.60;;;;;;;20.83;31.26;102764.00;4470843;28;20956;-54
2023/12/16 00:43:44;;;;;;;3.45;2.00;;;;;;;20.82;31.25;102766.00;4471057;28;20158;-51
2023/12/16 00:45:54;;;;;;;3.17;1.48;;;;;;;20.82;31.24;102760.28;4471141;28;20058;-52
2023/12/16 00:48:04;;;;;;;2.28;1.50;;;;;;;20.80;31.06;102756.91;4471049;28;20507;-54
2023/12/16 00:50:15;;;;;;;2.85;1.45;;;;;;;20.82;31.16;102762.31;4471416;28;20031;-55
2023/12/16 00:52:25;;;;;;;3.05;1.50;;;;;;;20.81;31.21;102767.19;4471152;28;20126;-54
2023/12/16 00:54:35;;;;;;;2.63;1.55;;;;;;;20.81;31.26;102761.44;4471094;28;20039;-55
2023/12/16 00:56:47;;;;;;;3.75;1.58;;;;;;;20.81;30.99;102761.44;4470795;28;20690;-51
2023/12/16 00:58:57;;;;;;;2.63;1.52;;;;;;;20.78;30.88;102762.09;4470977;28;20066;-55
2023/12/16 01:01:08;;;;;;;2.75;1.42;;;;;;;20.79;30.88;102767.50;4470705;28;20071;-51
2023/12/16 01:03:18;;;;;;;2.35;1.40;;;;;;;20.80;31.01;102765.50;4470895;28;20070;-51
2023/12/16 01:05:29;;;;;;;2.45;1.48;;;;;;;20.79;30.97;102764.66;4470654;28;20074;-52
2023/12/16 01:07:39;;;;;;;2.15;1.50;;;;;;;20.79;30.52;102761.78;4470524;28;20058;-53
2023/12/16 01:09:52;;;;;;;2.15;1.30;;;;;;;20.79;30.49;102764.66;4470751;28;20078;-50
2023/12/16 01:12:03;;;;;;;3.20;1.52;;;;;;;20.78;30.95;102762.94;4470979;28;20101;-53
2023/12/16 01:14:14;;;;;;;2.05;1.40;;;;;;;20.79;30.51;102764.66;4470591;28;20086;-54
2023/12/16 01:16:24;;;;;;;1.75;1.30;;;;;;;20.78;30.64;102762.09;4470759;28;20038;-54
2023/12/16 01:18:35;;;;;;;2.10;1.40;;;;;;;20.78;30.63;102770.69;4470426;28;20031;-55
2023/12/16 01:20:45;;;;;;;2.50;1.40;;;;;;;20.78;31.12;102767.84;4470859;28;20500;-53
2023/12/16 01:22:55;;;;;;;2.28;1.40;;;;;;;20.77;30.91;102769.84;4470668;28;20086;-53
2023/12/16 01:25:06;;;;;;;2.38;1.30;;;;;;;20.78;30.89;102767.84;4470556;28;20100;-52
2023/12/16 01:27:16;;;;;;;2.20;1.30;;;;;;;20.78;30.65;102762.09;4470529;28;20075;-55
2023/12/16 01:29:27;;;;;;;2.58;1.33;;;;;;;20.78;30.85;102774.44;4469720;28;20066;-51
2023/12/16 01:31:37;;;;;;;2.13;1.30;;;;;;;20.77;30.66;102774.75;4470397;28;20031;-54
2023/12/16 01:33:47;;;;;;;2.17;1.25;;;;;;;20.78;30.89;102776.44;4470601;28;20947;-52
2023/12/16 01:35:58;;;;;;;2.00;1.10;;;;;;;20.79;30.88;102775.25;4470278;28;25012;-52
2023/12/16 01:38:08;;;;;;;2.08;1.20;;;;;;;20.79;30.55;102769.53;4470389;28;20066;-52
2023/12/16 01:40:19;;;;;;;2.33;1.40;;;;;;;20.78;30.98;102767.84;4470562;28;20035;-53
2023/12/16 01:42:29;;;;;;;1.70;1.20;;;;;;;20.78;30.90;102762.94;4470227;28;20049;-53
2023/12/16 01:44:39;;;;;;;1.77;1.38;;;;;;;20.77;30.50;102764.09;4470342;28;20102;-53
2023/12/16 01:46:51;;;;;;;2.05;1.20;;;;;;;20.77;30.81;102775.59;4469866;28;20062;-52
2023/12/16 01:49:02;;;;;;;2.47;1.40;;;;;;;20.77;30.85;102778.44;4470154;28;20047;-51
2023/12/16 01:51:13;;;;;;;2.50;1.50;;;;;;;20.76;30.66;102781.63;4470467;28;20026;-52
2023/12/16 01:53:26;;;;;;;2.05;1.20;;;;;;;20.76;30.59;102782.50;4470250;28;20043;-52
2023/12/16 01:55:36;;;;;;;2.78;1.38;;;;;;;20.76;30.41;102775.91;4469995;28;21070;-53
2023/12/16 01:57:47;;;;;;;2.10;1.08;;;;;;;20.76;30.62;102776.75;4469922;28;20076;-53
2023/12/16 02:00:04;;;;;;;3.30;1.50;;;;;;;20.75;30.93;102775.06;4484063;28;20047;-53
2023/12/16 02:02:24;;;;;;;2.38;1.20;;;;;;;20.75;30.47;102785.69;4468940;28;20054;-53
2023/12/16 02:04:37;;;;;;;2.85;1.27;;;;;;;20.76;30.88;102778.78;4469834;28;20039;-54
2023/12/16 02:06:47;;;;;;;3.33;1.52;;;;;;;20.76;30.50;102773.03;4469446;28;20058;-51
2023/12/16 02:08:58;;;;;;;2.15;1.40;;;;;;;20.76;30.45;102773.03;4469659;28;20054;-51
2023/12/16 02:11:10;;;;;;;2.30;1.20;;;;;;;20.75;30.93;102768.47;4469289;28;23485;-51
2023/12/16 02:13:23;;;;;;;3.08;1.70;;;;;;;20.75;30.73;102772.19;4469633;28;20930;-51
2023/12/16 02:15:33;;;;;;;2.10;1.30;;;;;;;20.75;30.74;102762.72;4469896;28;20043;-54
2023/12/16 02:17:43;;;;;;;1.73;1.10;;;;;;;20.75;30.43;102772.19;4469997;28;20039;-54
2023/12/16 02:19:54;;;;;;;2.65;1.40;;;;;;;20.75;30.23;102771.34;4469788;28;20385;-51
2023/12/16 02:22:05;;;;;;;3.63;1.38;;;;;;;20.75;30.52;102771.34;4469672;28;20550;-52
2023/12/16 02:24:15;;;;;;;2.03;1.17;;;;;;;20.75;30.46;102768.47;4469966;28;20049;-52
2023/12/16 02:26:25;;;;;;;2.78;1.40;;;;;;;20.75;30.22;102765.59;4469449;28;20515;-52
2023/12/16 02:28:36;;;;;;;2.50;1.42;;;;;;;20.74;30.45;102767.59;4469109;28;24494;-55
2023/12/16 02:30:46;;;;;;;2.55;1.30;;;;;;;20.74;30.54;102767.59;4469648;28;20514;-51
2023/12/16 02:32:57;;;;;;;2.08;1.30;;;;;;;20.74;30.59;102770.47;4467895;28;24785;-55
2023/12/16 02:35:07;;;;;;;3.28;1.23;;;;;;;20.74;30.18;102769.63;4470077;28;20039;-52
2023/12/16 02:37:17;;;;;;;2.40;1.33;;;;;;;20.74;30.26;102775.34;4469803;28;20130;-52
2023/12/16 02:39:28;;;;;;;2.13;1.25;;;;;;;20.73;29.99;102768.78;4470207;28;20058;-51
2023/12/16 02:41:38;;;;;;;1.92;1.17;;;;;;;20.75;30.47;102777.06;4469504;28;20492;-51
2023/12/16 02:43:49;;;;;;;2.40;1.35;;;;;;;20.75;30.02;102768.47;4469850;28;20311;-53
2023/12/16 02:45:59;;;;;;;2.33;1.27;;;;;;;20.73;30.12;102768.78;4469607;28;20527;-52
2023/12/16 02:48:10;;;;;;;2.38;1.30;;;;;;;20.74;30.20;102755.25;4469813;28;20039;-52
2023/12/16 02:50:20;;;;;;;2.88;1.40;;;;;;;20.74;29.90;102763.88;4469640;28;20483;-52
2023/12/16 02:52:30;;;;;;;2.38;1.20;;;;;;;20.73;30.06;102762.19;4472573;28;20388;-53
2023/12/16 02:54:41;;;;;;;2.83;1.10;;;;;;;20.73;29.71;102770.78;4473287;28;20042;-53
2023/12/16 02:56:51;;;;;;;2.90;1.30;;;;;;;20.72;30.06;102769.09;4474565;28;20066;-54
2023/12/16 02:59:02;;;;;;;3.30;1.30;;;;;;;20.73;29.95;102771.66;4472312;28;24872;-52
2023/12/16 03:01:12;;;;;;;2.25;1.33;;;;;;;20.73;29.82;102770.78;4473338;28;20269;-55
2023/12/16 03:03:23;;;;;;;2.95;1.30;;;;;;;20.72;29.99;102769.09;4473035;28;20133;-51
2023/12/16 03:05:33;;;;;;;2.20;1.17;;;;;;;20.73;29.76;102762.19;4473071;28;20094;-51
2023/12/16 03:07:43;;;;;;;2.45;1.20;;;;;;;20.73;30.03;102770.78;4472410;28;20498;-55
2023/12/16 03:09:54;;;;;;;2.03;1.30;;;;;;;20.72;29.61;102775.66;4473070;28;20042;-56
2023/12/16 03:12:06;;;;;;;2.97;1.38;;;;;;;20.71;30.06;102778.84;4472745;28;20705;-51
2023/12/16 03:14:16;;;;;;;2.83;1.30;;;;;;;20.72;29.65;102792.06;4472451;28;20047;-51
2023/12/16 03:16:27;;;;;;;2.08;1.05;;;;;;;20.72;30.09;102794.94;4472241;28;20051;-54
2023/12/16 03:18:37;;;;;;;2.35;1.23;;;;;;;20.72;29.75;102798.63;4472729;28;20170;-54
2023/12/16 03:20:50;;;;;;;2.67;1.23;;;;;;;20.72;29.70;102806.41;4473049;28;20580;-54
2023/12/16 03:23:01;;;;;;;2.88;1.40;;;;;;;20.73;30.22;102808.09;4470950;28;20046;-51
2023/12/16 03:25:11;;;;;;;1.65;1.20;;;;;;;20.72;30.17;102809.28;4472379;28;20043;-54
2023/12/16 03:27:22;;;;;;;2.45;1.25;;;;;;;20.71;29.85;102801.81;4472227;28;20043;-53
2023/12/16 03:29:32;;;;;;;2.38;1.40;;;;;;;20.72;30.23;102797.81;4472635;28;20027;-51
2023/12/16 03:31:43;;;;;;;2.40;1.25;;;;;;;20.72;30.17;102794.94;4472549;28;20039;-52
2023/12/16 03:33:53;;;;;;;2.63;1.17;;;;;;;20.71;29.78;102799.81;4472253;28;20039;-52
2023/12/16 03:36:07;;;;;;;2.88;1.50;;;;;;;20.71;30.39;102785.47;4472253;28;20038;-55
2023/12/16 03:38:18;;;;;;;1.90;1.10;;;;;;;20.69;29.91;102779.19;4472374;28;20555;-54
2023/12/16 03:40:29;;;;;;;3.22;1.50;;;;;;;20.70;30.18;102777.16;4472672;28;20043;-52
2023/12/16 03:42:39;;;;;;;2.50;1.25;;;;;;;20.70;30.40;102782.91;4472380;28;20630;-54
2023/12/16 03:44:50;;;;;;;2.90;1.33;;;;;;;20.71;30.16;102785.47;4472275;28;20122;-52
2023/12/16 03:47:00;;;;;;;2.75;1.20;;;;;;;20.71;29.98;102778.84;4472384;28;20389;-54
2023/12/16 03:49:10;;;;;;;2.15;1.27;;;;;;;20.71;30.00;102784.59;4472207;28;20062;-52
2023/12/16 03:51:22;;;;;;;2.38;1.17;;;;;;;20.70;29.96;102777.16;4471881;28;24088;-51
2023/12/16 03:53:32;;;;;;;2.42;1.40;;;;;;;20.69;30.20;102770.56;4471223;28;20125;-51
2023/12/16 03:55:43;;;;;;;3.13;1.30;;;;;;;20.70;30.09;102772.28;4472342;28;20548;-54
2023/12/16 03:57:53;;;;;;;2.10;1.10;;;;;;;20.70;30.19;102772.28;4471439;28;20488;-51
2023/12/16 04:00:05;;;;;;;2.97;1.38;;;;;;;20.69;29.63;102776.31;4470839;28;20043;-51
2023/12/16 04:02:22;;;;;;;2.33;1.30;;;;;;;20.69;29.89;102781.22;4471437;28;20045;-51
2023/12/16 04:04:33;;;;;;;2.35;1.38;;;;;;;20.69;29.76;102779.19;4471373;28;20492;-52
2023/12/16 04:06:45;;;;;;;3.00;1.30;;;;;;;20.68;30.11;102780.34;4472027;28;20049;-51
2023/12/16 04:08:56;;;;;;;2.58;1.30;;;;;;;20.69;29.94;102781.22;4471374;28;20883;-52
2023/12/16 04:11:07;;;;;;;2.30;1.27;;;;;;;20.69;30.12;102775.47;4472001;28;20031;-52
2023/12/16 04:13:17;;;;;;;3.42;1.20;;;;;;;20.69;29.92;102770.56;4471612;28;20940;-53
2023/12/16 04:15:28;;;;;;;2.35;1.33;;;;;;;20.69;29.85;102778.34;4471747;28;20049;-52
2023/12/16 04:17:38;;;;;;;2.30;1.30;;;;;;;20.68;29.90;102786.09;4471491;28;20035;-54
2023/12/16 04:19:52;;;;;;;2.42;1.33;;;;;;;20.68;30.19;102776.63;4471782;28;20440;-53
2023/12/16 04:22:03;;;;;;;3.08;1.38;;;;;;;20.68;29.83;102776.63;4471200;28;20049;-54
2023/12/16 04:24:13;;;;;;;3.53;1.50;;;;;;;20.68;30.14;102774.63;4472027;28;20035;-55
2023/12/16 04:26:24;;;;;;;3.03;1.48;;;;;;;20.68;29.80;102773.75;4471917;28;20042;-52
2023/12/16 04:28:34;;;;;;;3.28;1.60;;;;;;;20.68;30.14;102777.50;4471459;28;20039;-55
2023/12/16 04:30:45;;;;;;;2.40;1.10;;;;;;;20.69;29.90;102772.59;4471736;28;20051;-53
2023/12/16 04:32:55;;;;;;;2.90;1.30;;;;;;;20.68;30.40;102768.88;4471681;28;20049;-52
2023/12/16 04:35:06;;;;;;;2.88;1.35;;;;;;;20.69;29.84;102775.47;4471362;28;20053;-52
2023/12/16 04:37:16;;;;;;;2.88;1.50;;;;;;;20.68;30.34;102776.63;4471269;28;20043;-52
2023/12/16 04:39:26;;;;;;;3.78;1.50;;;;;;;20.68;30.34;102773.75;4471130;28;20047;-54
2023/12/16 04:41:37;;;;;;;2.33;1.40;;;;;;;20.68;30.34;102773.75;4471075;28;20484;-51
2023/12/16 04:43:47;;;;;;;3.83;1.70;;;;;;;20.67;30.39;102772.06;4469580;28;20085;-56
2023/12/16 04:46:00;;;;;;;3.30;1.50;;;;;;;20.68;29.92;102774.63;4471149;28;20038;-54
2023/12/16 04:48:10;;;;;;;3.08;1.40;;;;;;;20.67;30.01;102772.94;4471064;28;20606;-56
2023/12/16 04:50:21;;;;;;;3.63;1.40;;;;;;;20.68;30.48;102773.75;4471430;28;20137;-56
2023/12/16 04:52:31;;;;;;;3.70;1.40;;;;;;;20.68;29.80;102773.75;4471185;28;20477;-54
2023/12/16 04:54:42;;;;;;;3.05;1.27;;;;;;;20.68;30.14;102773.75;4471287;28;20033;-56
2023/12/16 04:56:52;;;;;;;3.05;1.30;;;;;;;20.66;29.63;102771.19;4470864;28;20043;-52
2023/12/16 04:59:03;;;;;;;3.45;1.33;;;;;;;20.66;29.85;102782.69;4470995;28;20043;-53
2023/12/16 05:01:13;;;;;;;3.40;1.40;;;;;;;20.67;30.02;102777.81;4470846;28;20050;-56
2023/12/16 05:03:24;;;;;;;2.20;1.17;;;;;;;20.67;30.04;102783.53;4470948;28;20043;-52
2023/12/16 05:05:34;;;;;;;2.97;1.30;;;;;;;20.66;29.64;102787.59;4470934;28;20027;-54
2023/12/16 05:07:44;;;;;;;2.33;1.10;;;;;;;20.66;29.80;102785.56;4470857;28;28643;-55
2023/12/16 05:09:55;;;;;;;2.75;1.25;;;;;;;20.66;29.79;102776.13;4470951;28;20511;-51
2023/12/16 05:12:06;;;;;;;2.85;1.30;;;;;;;20.66;30.04;102784.72;4471154;28;20094;-55
2023/12/16 05:14:16;;;;;;;2.70;1.20;;;;;;;20.65;29.67;102781.00;4470685;28;20122;-55
2023/12/16 05:16:27;;;;;;;2.72;1.42;;;;;;;20.67;29.56;102783.53;4470817;28;20113;-56
2023/12/16 05:18:38;;;;;;;2.08;1.20;;;;;;;20.67;29.98;102783.53;4470399;28;20046;-51
2023/12/16 05:20:48;;;;;;;3.42;1.50;;;;;;;20.67;29.54;102783.53;4470022;28;26379;-52
2023/12/16 05:23:02;;;;;;;3.03;1.40;;;;;;;20.66;29.55;102793.34;4470542;28;20054;-52
2023/12/16 05:25:12;;;;;;;2.80;1.20;;;;;;;20.66;29.49;102793.34;4470081;28;20034;-52
2023/12/16 05:27:23;;;;;;;3.00;1.40;;;;;;;20.66;29.24;102793.34;4468300;28;22479;-52
2023/12/16 05:29:33;;;;;;;2.35;1.30;;;;;;;20.66;29.38;102781.84;4470770;28;20535;-52
2023/12/16 05:31:44;;;;;;;2.35;1.20;;;;;;;20.66;29.55;102788.41;4469871;28;26001;-52
2023/12/16 05:33:54;;;;;;;2.80;1.38;;;;;;;20.65;29.32;102795.34;4471593;28;20508;-54
2023/12/16 05:36:06;;;;;;;2.80;1.17;;;;;;;20.65;29.72;102798.19;4470355;28;20097;-53
2023/12/16 05:38:17;;;;;;;2.47;1.20;;;;;;;20.64;29.44;102787.03;4470481;28;20815;-55
2023/12/16 05:40:27;;;;;;;2.17;1.38;;;;;;;20.65;29.32;102783.00;4470497;28;20046;-51
2023/12/16 05:42:41;;;;;;;4.47;1.35;;;;;;;20.64;29.24;102782.13;4470059;28;20106;-54
2023/12/16 05:44:52;;;;;;;2.00;1.25;;;;;;;20.65;29.09;102785.88;4470248;28;21008;-53
2023/12/16 05:47:02;;;;;;;3.38;1.60;;;;;;;20.65;29.32;102780.13;4469921;28;20727;-52
2023/12/16 05:49:12;;;;;;;2.60;1.50;;;;;;;20.64;29.72;102776.41;4469964;28;20082;-54
2023/12/16 05:51:23;;;;;;;2.97;1.40;;;;;;;20.66;29.42;102776.13;4468611;28;20062;-53
2023/12/16 05:53:34;;;;;;;3.15;1.80;;;;;;;20.64;29.50;102772.69;4470136;28;20043;-56
2023/12/16 05:55:47;;;;;;;2.70;1.60;;;;;;;20.64;29.37;102770.66;4469839;28;20039;-54
2023/12/16 05:57:57;;;;;;;4.05;2.40;;;;;;;20.64;29.75;102787.03;4469537;28;20034;-56
2023/12/16 06:00:08;;;;;;;3.10;1.73;;;;;;;20.64;29.44;102787.03;4470244;28;20039;-51
2023/12/16 06:02:19;;;;;;;3.67;1.60;;;;;;;20.64;29.96;102787.03;4470033;28;20237;-55
2023/12/16 06:04:29;;;;;;;3.03;1.55;;;;;;;20.64;29.93;102789.91;4469986;28;20027;-52
2023/12/16 06:06:39;;;;;;;2.03;1.10;;;;;;;20.64;30.13;102787.03;4469573;28;20043;-55
2023/12/16 06:08:50;;;;;;;3.08;1.45;;;;;;;20.62;29.85;102787.34;4469842;28;20039;-54
2023/12/16 06:11:00;;;;;;;2.63;1.08;;;;;;;20.63;30.01;102789.06;4470217;28;20129;-55
2023/12/16 06:13:11;;;;;;;2.75;1.10;;;;;;;20.63;29.86;102788.19;4470210;28;20039;-53
2023/12/16 06:15:21;;;;;;;2.75;1.40;;;;;;;20.62;29.87;102797.97;4470196;28;20047;-55
2023/12/16 06:17:32;;;;;;;2.45;1.40;;;;;;;20.62;30.32;102790.22;4470036;28;20090;-51
2023/12/16 06:19:42;;;;;;;2.63;1.38;;;;;;;20.62;30.07;102795.97;4469944;28;20027;-53
2023/12/16 06:21:52;;;;;;;2.72;1.30;;;;;;;20.61;30.11;102802.84;4470024;28;20039;-53
2023/12/16 06:24:04;;;;;;;2.47;1.20;;;;;;;20.62;30.18;102803.72;4470165;28;20047;-52
2023/12/16 06:26:14;;;;;;;4.03;2.50;;;;;;;20.62;29.86;102800.84;4469164;28;20042;-53
2023/12/16 06:28:25;;;;;;;2.85;1.42;;;;;;;20.62;30.12;102806.59;4469451;28;20134;-55
2023/12/16 06:30:35;;;;;;;2.35;1.35;;;;;;;20.64;30.11;102807.13;4469745;28;20047;-54
2023/12/16 06:32:45;;;;;;;2.03;1.30;;;;;;;20.63;29.71;102800.53;4470189;28;20042;-51
2023/12/16 06:34:56;;;;;;;2.70;1.52;;;;;;;20.63;30.01;102806.28;4470014;28;20507;-51
2023/12/16 06:37:07;;;;;;;2.13;1.33;;;;;;;20.63;29.87;102799.66;4470007;28;20043;-55
2023/12/16 06:39:17;;;;;;;2.55;1.17;;;;;;;20.62;29.87;102793.09;4469674;28;20063;-51
2023/12/16 06:41:30;;;;;;;2.85;1.30;;;;;;;20.62;30.01;102797.97;4469699;28;20030;-56
2023/12/16 06:43:40;;;;;;;3.78;1.40;;;;;;;20.62;29.82;102795.97;4469516;28;20039;-55
2023/12/16 06:45:50;;;;;;;2.72;1.30;;;;;;;20.62;29.81;102792.25;4469409;28;20039;-52
2023/12/16 06:48:01;;;;;;;1.95;1.20;;;;;;;20.62;30.21;102806.59;4469208;28;20091;-53
2023/12/16 06:50:11;;;;;;;2.10;1.20;;;;;;;20.62;29.95;102815.19;4469828;28;20538;-51
2023/12/16 06:52:22;;;;;;;2.90;1.42;;;;;;;20.62;29.72;102816.06;4469795;28;20130;-51
2023/12/16 06:54:33;;;;;;;2.03;1.10;;;;;;;20.62;30.08;102821.78;4469586;28;20171;-53
2023/12/16 06:56:43;;;;;;;1.83;1.20;;;;;;;20.63;29.69;102816.88;4469532;28;20492;-52
2023/12/16 06:58:53;;;;;;;2.40;1.23;;;;;;;20.63;29.66;102826.34;4469509;28;20043;-53
2023/12/16 07:01:04;;;;;;;2.05;1.33;;;;;;;20.62;30.25;102818.94;4469293;28;23021;-53
2023/12/16 07:03:14;;;;;;;2.70;1.30;;;;;;;20.64;29.78;102818.59;4468966;28;20077;-52
2023/12/16 07:05:25;;;;;;;2.00;1.10;;;;;;;20.62;29.86;102820.94;4469546;28;20123;-52
2023/12/16 07:07:35;;;;;;;2.03;0.90;;;;;;;20.64;29.86;102828.03;4469218;28;20039;-52
2023/12/16 07:09:46;;;;;;;1.83;1.00;;;;;;;20.63;29.95;102834.97;4469647;28;20030;-52
2023/12/16 07:11:56;;;;;;;2.78;1.10;;;;;;;20.64;30.03;102835.81;4468827;28;20043;-54
2023/12/16 07:14:08;;;;;;;3.20;1.13;;;;;;;20.63;29.66;102834.09;4469453;28;20122;-52
2023/12/16 07:16:19;;;;;;;1.85;1.08;;;;;;;20.62;29.74;102836.13;4469416;28;20026;-52
2023/12/16 07:18:29;;;;;;;2.13;1.20;;;;;;;20.63;29.97;102834.09;4469812;28;20043;-56
2023/12/16 07:20:40;;;;;;;2.88;1.60;;;;;;;20.64;29.70;102841.56;4469659;28;20050;-56
2023/12/16 07:22:51;;;;;;;2.80;1.50;;;;;;;20.64;29.95;102841.56;4469414;28;20039;-55
2023/12/16 07:25:02;;;;;;;2.08;1.27;;;;;;;20.62;30.01;102838.16;4469509;28;20110;-55
2023/12/16 07:27:12;;;;;;;2.53;1.30;;;;;;;20.63;29.92;102842.72;4469274;28;20042;-55
2023/12/16 07:29:23;;;;;;;2.50;1.10;;;;;;;20.63;29.66;102839.84;4469462;28;20428;-52
2023/12/16 07:31:33;;;;;;;2.80;1.02;;;;;;;20.64;29.69;102847.31;4469250;28;20066;-51
2023/12/16 07:33:43;;;;;;;2.53;1.30;;;;;;;20.64;29.62;102847.31;4469220;28;20118;-54
2023/12/16 07:35:54;;;;;;;2.22;1.10;;;;;;;20.63;29.69;102842.72;4467905;28;20420;-54
2023/12/16 07:38:04;;;;;;;2.30;1.10;;;;;;;20.62;29.96;102846.75;4470948;28;20069;-55
2023/12/16 07:40:15;;;;;;;1.55;1.00;;;;;;;20.62;29.73;102844.75;4472472;28;20053;-53
2023/12/16 07:42:25;;;;;;;2.60;1.10;;;;;;;20.62;29.87;102850.50;4472121;28;20047;-55
2023/12/16 07:44:35;;;;;;;2.63;1.20;;;;;;;20.63;29.80;102852.19;4472158;28;20098;-51
2023/12/16 07:46:46;;;;;;;2.45;1.30;;;;;;;20.63;29.77;102845.56;4472022;28;20617;-55
2023/12/16 07:48:56;;;;;;;2.38;1.30;;;;;;;20.64;29.40;102850.16;4472028;28;20082;-53
2023/12/16 07:51:14;;;;;;;1.77;1.00;;;;;;;20.63;29.61;102854.19;4471941;28;20046;-51
2023/12/16 07:53:24;;;;;;;2.80;1.55;;;;;;;20.62;29.85;102849.63;4471755;28;20038;-54
2023/12/16 07:55:35;;;;;;;2.28;1.50;;;;;;;20.62;29.46;102843.88;4471980;28;20030;-53
2023/12/16 07:57:45;;;;;;;2.63;1.40;;;;;;;20.60;29.82;102838.47;4469631;28;20043;-51
2023/12/16 07:59:56;;;;;;;3.08;1.70;;;;;;;20.62;29.63;102835.28;4471840;28;20517;-56
2023/12/16 08:02:08;;;;;;;3.05;1.55;;;;;;;20.62;29.72;102833.28;4471738;28;20514;-51
2023/12/16 08:04:19;;;;;;;2.15;1.13;;;;;;;20.63;29.91;102840.69;4471594;28;20178;-55
2023/12/16 08:06:29;;;;;;;2.17;1.10;;;;;;;20.62;29.86;102841.03;4471721;28;20043;-51
2023/12/16 08:08:41;;;;;;;2.17;1.25;;;;;;;20.63;29.54;102842.72;4471470;28;20042;-52
2023/12/16 08:10:53;;;;;;;2.20;1.20;;;;;;;20.63;29.85;102843.56;4471608;28;20614;-52
2023/12/16 08:13:03;;;;;;;2.17;1.10;;;;;;;20.62;29.50;102838.16;4472143;28;20751;-55
2023/12/16 08:15:14;;;;;;;2.83;1.38;;;;;;;20.61;29.79;102847.94;4471835;28;20631;-53
2023/12/16 08:17:25;;;;;;;3.15;1.13;;;;;;;20.61;29.98;102848.75;4471632;28;20030;-51
2023/12/16 08:19:35;;;;;;;3.85;1.20;;;;;;;20.62;29.59;102846.75;4471162;28;20061;-52
2023/12/16 08:21:46;;;;;;;2.00;1.23;;;;;;;20.62;29.63;102847.63;4471321;28;20051;-53
2023/12/16 08:23:56;;;;;;;1.90;1.20;;;;;;;20.60;29.64;102847.06;4471643;28;20055;-55
2023/12/16 08:26:10;;;;;;;3.63;1.38;;;;;;;20.60;30.00;102852.81;4471416;28;20556;-52
2023/12/16 08:28:20;;;;;;;2.50;1.45;;;;;;;20.61;29.83;102854.50;4471321;28;20049;-54
2023/12/16 08:30:31;;;;;;;3.10;1.25;;;;;;;20.61;29.72;102856.53;4471336;28;20050;-51
2023/12/16 08:32:41;;;;;;;2.47;1.40;;;;;;;20.62;29.92;102855.38;4471749;28;20058;-53
2023/12/16 08:34:52;;;;;;;3.20;1.50;;;;;;;20.62;30.05;102855.38;4471278;28;20049;-54
2023/12/16 08:37:03;;;;;;;4.05;1.92;;;;;;;20.62;30.05;102863.97;4471630;28;20053;-52
2023/12/16 08:39:13;;;;;;;2.92;1.35;;;;;;;20.62;30.20;102858.22;4471421;28;20547;-54
2023/12/16 08:41:25;;;;;;;2.35;1.45;;;;;;;20.60;29.59;102854.81;4471293;28;20399;-54
2023/12/16 08:43:35;;;;;;;2.17;1.60;;;;;;;20.61;29.90;102859.41;4471437;28;20043;-53
2023/12/16 08:45:46;;;;;;;2.70;1.67;;;;;;;20.61;29.72;102856.53;4471397;28;20035;-51
2023/12/16 08:47:56;;;;;;;3.25;1.98;;;;;;;20.60;30.12;102861.41;4470868;28;20054;-56
2023/12/16 08:50:07;;;;;;;3.88;1.90;;;;;;;20.62;29.65;102872.59;4470614;28;20046;-54
2023/12/16 08:52:18;;;;;;;2.85;1.85;;;;;;;20.62;30.13;102872.59;4471123;28;20030;-53
2023/12/16 08:54:28;;;;;;;3.33;1.83;;;;;;;20.61;30.18;102883.19;4471457;28;20043;-56
2023/12/16 08:56:39;;;;;;;3.08;1.90;;;;;;;20.61;30.06;102873.75;4470984;28;20579;-55
2023/12/16 08:58:49;;;;;;;3.25;1.98;;;;;;;20.61;30.11;102883.19;4470713;28;20152;-56
2023/12/16 09:00:59;;;;;;;4.30;2.50;;;;;;;20.62;30.13;102875.44;4470924;28;23288;-56
2023/12/16 09:03:13;;;;;;;3.55;1.88;;;;;;;20.61;29.89;102883.19;4470722;28;20055;-54
2023/12/16 09:05:26;;;;;;;4.05;2.15;;;;;;;20.62;30.26;102881.19;4470168;28;20813;-54
2023/12/16 09:07:37;;;;;;;3.42;2.33;;;;;;;20.63;30.32;102880.88;4469150;28;20035;-55
2023/12/16 09:09:47;;;;;;;3.00;1.60;;;;;;;20.62;30.17;102866.84;4471877;28;20484;-52
2023/12/16 09:11:58;;;;;;;2.00;1.20;;;;;;;20.64;30.44;102873.13;4470847;28;20047;-52
2023/12/16 09:14:08;;;;;;;2.42;1.50;;;;;;;20.62;30.40;102863.97;4470444;28;20043;-54
2023/12/16 09:16:19;;;;;;;2.63;1.70;;;;;;;20.63;30.64;102862.78;4470751;28;20043;-52
2023/12/16 09:18:29;;;;;;;3.65;1.90;;;;;;;20.62;30.35;102875.44;4470723;28;20043;-55
2023/12/16 09:20:40;;;;;;;2.00;1.30;;;;;;;20.65;30.26;102883.44;4470890;28;20039;-52
2023/12/16 09:22:51;;;;;;;2.72;1.52;;;;;;;20.64;30.56;102887.47;4470556;28;20038;-53
2023/12/16 09:25:04;;;;;;;2.65;1.25;;;;;;;20.65;30.78;102894.91;4470039;28;20085;-53
2023/12/16 09:27:14;;;;;;;2.33;1.20;;;;;;;20.65;30.45;102892.03;4468865;28;20035;-52
2023/12/16 09:29:25;;;;;;;3.03;1.50;;;;;;;20.65;30.69;102889.16;4470628;28;20031;-50
2023/12/16 09:31:36;;;;;;;1.95;1.10;;;;;;;20.65;30.74;102895.78;4470409;28;20061;-52
2023/12/16 09:33:46;;;;;;;4.32;2.67;;;;;;;20.66;30.58;102896.63;4470631;28;21066;-50
2023/12/16 09:35:56;;;;;;;5.38;3.60;;;;;;;20.65;30.57;102894.91;4470018;28;20530;-51
2023/12/16 09:38:07;;;;;;;5.28;3.53;;;;;;;20.66;30.92;102888.03;4469960;28;20030;-53
2023/12/16 09:40:17;;;;;;;4.57;2.88;;;;;;;20.66;30.75;102888.84;4470249;28;20126;-51
2023/12/16 09:42:29;;;;;;;3.10;1.77;;;;;;;20.66;30.82;102896.63;4470329;28;20047;-53
2023/12/16 09:44:41;;;;;;;3.70;1.67;;;;;;;20.66;30.71;102899.50;4470446;28;20122;-53
2023/12/16 09:46:53;;;;;;;2.08;1.30;;;;;;;20.67;30.72;102893.44;4470124;28;20539;-55
2023/12/16 09:49:04;;;;;;;2.55;1.50;;;;;;;20.68;30.97;102897.16;4469703;28;20054;-52
2023/12/16 09:51:14;;;;;;;2.90;2.00;;;;;;;20.68;31.10;102885.66;4470400;28;20057;-51
2023/12/16 09:53:25;;;;;;;3.55;2.28;;;;;;;20.68;31.12;102886.53;4470516;28;20031;-53
2023/12/16 09:55:35;;;;;;;3.67;1.80;;;;;;;20.70;30.80;102880.47;4469965;28;20043;-53
2023/12/16 09:57:47;;;;;;;3.67;1.75;;;;;;;20.71;30.88;102870.69;4470184;28;20047;-51
2023/12/16 09:59:57;;;;;;;4.15;2.40;;;;;;;20.70;30.96;102867.00;4469784;28;20039;-54
2023/12/16 10:02:40;;;;;;;3.08;2.10;;;;;;;20.72;30.70;102866.69;4469223;28;20460;-52
2023/12/16 10:04:52;;;;;;;4.25;2.10;;;;;;;20.71;30.91;102871.56;4458161;28;20080;-55
2023/12/16 10:07:03;;;;;;;3.95;2.83;;;;;;;20.71;31.11;102871.56;4484743;28;20069;-55